TAP1925 LPPR-LPPT
Flight info
| Callsign | TAP1925 |
|---|---|
| Flight time | 0h 48m |
| Altitude | 31000 |
| Route | MANIK DCT ABRIL DCT XAMAX |
| Aircraft | A320/M-SDE3FGHIRWY/LB1 |
Departure
| Time | 2026-05-03 22:04 |
|---|---|
| Airport | Francisco de Sá Carneiro Airport (LPPR) |
Arrival
| Time | 2026-05-03 22:52 |
|---|---|
| Airport | Lisbon Humberto Delgado Airport (LPPT) |
| Time | Latitude | Longitude | Altitude | Speed | Heading |
|---|---|---|---|---|---|
| 2026-05-03 21:41 | 41.23772 | -8.67300 | 243 ft | 0 kts | 49° |
| 2026-05-03 21:57 | 41.23756 | -8.67324 | 242 ft | 4 kts | 49° |
| 2026-05-03 21:57 | 41.23739 | -8.67352 | 242 ft | 3 kts | 50° |
| 2026-05-03 21:57 | 41.23725 | -8.67378 | 241 ft | 4 kts | 81° |
| 2026-05-03 21:57 | 41.23729 | -8.67410 | 239 ft | 3 kts | 126° |
| 2026-05-03 21:58 | 41.23731 | -8.67415 | 239 ft | 0 kts | 127° |
| 2026-05-03 22:01 | 41.23715 | -8.67410 | 239 ft | 6 kts | 183° |
| 2026-05-03 22:01 | 41.23668 | -8.67438 | 237 ft | 8 kts | 206° |
| 2026-05-03 22:01 | 41.23630 | -8.67494 | 235 ft | 7 kts | 248° |
| 2026-05-03 22:01 | 41.23620 | -8.67548 | 235 ft | 5 kts | 258° |
| 2026-05-03 22:02 | 41.23618 | -8.67566 | 240 ft | 0 kts | 259° |
| 2026-05-03 22:02 | 41.23611 | -8.67616 | 234 ft | 13 kts | 259° |
| 2026-05-03 22:02 | 41.23590 | -8.67750 | 231 ft | 14 kts | 258° |
| 2026-05-03 22:03 | 41.23641 | -8.67820 | 229 ft | 14 kts | 347° |
| 2026-05-03 22:03 | 41.23803 | -8.67863 | 222 ft | 50 kts | 348° |
| 2026-05-03 22:03 | 41.24375 | -8.68013 | 214 ft | 114 kts | 349° |
| 2026-05-03 22:03 | 41.25334 | -8.68265 | 181 ft | 164 kts | 349° |
| 2026-05-03 22:04 | 41.26508 | -8.68572 | 631 ft | 172 kts | 349° |
| 2026-05-03 22:04 | 41.27684 | -8.68876 | 1360 ft | 171 kts | 348° |
| 2026-05-03 22:04 | 41.28834 | -8.69171 | 2127 ft | 164 kts | 348° |
| 2026-05-03 22:04 | 41.29960 | -8.69457 | 2719 ft | 168 kts | 348° |
| 2026-05-03 22:05 | 41.31169 | -8.69774 | 3030 ft | 187 kts | 347° |
| 2026-05-03 22:05 | 41.32522 | -8.70137 | 3265 ft | 210 kts | 347° |
| 2026-05-03 22:05 | 41.34045 | -8.70545 | 3583 ft | 235 kts | 347° |
| 2026-05-03 22:05 | 41.35721 | -8.70990 | 4098 ft | 252 kts | 347° |
| 2026-05-03 22:06 | 41.37463 | -8.71449 | 4920 ft | 258 kts | 347° |
| 2026-05-03 22:06 | 41.39223 | -8.72027 | 5725 ft | 262 kts | 335° |
| 2026-05-03 22:06 | 41.40701 | -8.73416 | 6548 ft | 263 kts | 310° |
| 2026-05-03 22:06 | 41.41574 | -8.75538 | 7369 ft | 265 kts | 285° |
| 2026-05-03 22:07 | 41.41666 | -8.77996 | 8171 ft | 271 kts | 262° |
| 2026-05-03 22:07 | 41.41297 | -8.80474 | 8979 ft | 274 kts | 257° |
| 2026-05-03 22:07 | 41.40489 | -8.82785 | 9779 ft | 281 kts | 232° |
| 2026-05-03 22:07 | 41.38957 | -8.84383 | 10443 ft | 294 kts | 207° |
| 2026-05-03 22:08 | 41.36877 | -8.84899 | 10662 ft | 322 kts | 178° |
| 2026-05-03 22:08 | 41.34574 | -8.84461 | 10828 ft | 347 kts | 172° |
| 2026-05-03 22:08 | 41.32134 | -8.83811 | 11049 ft | 366 kts | 169° |
| 2026-05-03 22:08 | 41.29633 | -8.83071 | 11618 ft | 372 kts | 169° |
| 2026-05-03 22:09 | 41.27089 | -8.82309 | 12306 ft | 375 kts | 169° |
| 2026-05-03 22:09 | 41.24526 | -8.81565 | 13011 ft | 377 kts | 170° |
| 2026-05-03 22:09 | 41.21948 | -8.80849 | 13692 ft | 379 kts | 171° |
| 2026-05-03 22:10 | 41.16739 | -8.79467 | 14897 ft | 385 kts | 172° |
| 2026-05-03 22:10 | 41.14100 | -8.78780 | 15473 ft | 387 kts | 172° |
| 2026-05-03 22:10 | 41.11440 | -8.78089 | 16038 ft | 390 kts | 172° |
| 2026-05-03 22:10 | 41.08770 | -8.77393 | 16589 ft | 393 kts | 172° |
| 2026-05-03 22:11 | 41.06083 | -8.76676 | 17133 ft | 396 kts | 169° |
| 2026-05-03 22:11 | 41.03445 | -8.75648 | 17660 ft | 400 kts | 166° |
| 2026-05-03 22:11 | 41.00804 | -8.74556 | 18185 ft | 403 kts | 166° |
| 2026-05-03 22:11 | 40.98118 | -8.73446 | 18668 ft | 405 kts | 166° |
| 2026-05-03 22:12 | 40.95389 | -8.72321 | 19131 ft | 407 kts | 166° |
| 2026-05-03 22:12 | 40.92710 | -8.71222 | 19590 ft | 409 kts | 167° |
| 2026-05-03 22:12 | 40.89987 | -8.70109 | 20099 ft | 410 kts | 167° |
| 2026-05-03 22:12 | 40.87258 | -8.68993 | 20568 ft | 411 kts | 167° |
| 2026-05-03 22:13 | 40.84520 | -8.67873 | 21015 ft | 413 kts | 167° |
| 2026-05-03 22:13 | 40.81778 | -8.66750 | 21447 ft | 415 kts | 167° |
| 2026-05-03 22:13 | 40.79005 | -8.65616 | 21858 ft | 418 kts | 168° |
| 2026-05-03 22:13 | 40.76223 | -8.64484 | 22279 ft | 420 kts | 168° |
| 2026-05-03 22:14 | 40.73422 | -8.63346 | 22682 ft | 422 kts | 168° |
| 2026-05-03 22:14 | 40.70640 | -8.62226 | 23009 ft | 424 kts | 170° |
| 2026-05-03 22:14 | 40.67702 | -8.61437 | 23077 ft | 428 kts | 178° |
| 2026-05-03 22:14 | 40.64707 | -8.61054 | 23073 ft | 437 kts | 179° |
| 2026-05-03 22:15 | 40.61662 | -8.60691 | 23076 ft | 443 kts | 179° |
| 2026-05-03 22:15 | 40.58581 | -8.60324 | 23054 ft | 445 kts | 179° |
| 2026-05-03 22:15 | 40.55527 | -8.59954 | 23085 ft | 446 kts | 179° |
| 2026-05-03 22:15 | 40.52435 | -8.59580 | 23070 ft | 446 kts | 179° |
| 2026-05-03 22:16 | 40.49344 | -8.59206 | 23080 ft | 446 kts | 179° |
| 2026-05-03 22:16 | 40.46247 | -8.58832 | 23081 ft | 446 kts | 179° |
| 2026-05-03 22:16 | 40.43154 | -8.58457 | 23080 ft | 447 kts | 179° |
| 2026-05-03 22:16 | 40.40060 | -8.58080 | 23081 ft | 447 kts | 179° |
| 2026-05-03 22:17 | 40.36964 | -8.57702 | 23076 ft | 446 kts | 179° |
| 2026-05-03 22:17 | 40.33868 | -8.57325 | 23075 ft | 446 kts | 179° |
| 2026-05-03 22:17 | 40.30777 | -8.56950 | 23085 ft | 446 kts | 179° |
| 2026-05-03 22:17 | 40.27685 | -8.56576 | 23075 ft | 446 kts | 179° |
| 2026-05-03 22:18 | 40.24588 | -8.56202 | 23086 ft | 446 kts | 179° |
| 2026-05-03 22:18 | 40.21496 | -8.55828 | 23081 ft | 446 kts | 179° |
| 2026-05-03 22:18 | 40.18412 | -8.55455 | 23071 ft | 446 kts | 179° |
| 2026-05-03 22:18 | 40.15308 | -8.55080 | 23052 ft | 446 kts | 179° |
| 2026-05-03 22:19 | 40.12220 | -8.54708 | 23058 ft | 446 kts | 180° |
| 2026-05-03 22:19 | 40.09131 | -8.54337 | 23055 ft | 446 kts | 180° |
| 2026-05-03 22:19 | 40.06032 | -8.53965 | 23057 ft | 446 kts | 180° |
| 2026-05-03 22:19 | 40.02945 | -8.53597 | 23059 ft | 447 kts | 180° |
| 2026-05-03 22:20 | 39.99853 | -8.53273 | 23065 ft | 446 kts | 181° |
| 2026-05-03 22:20 | 39.96749 | -8.53006 | 23066 ft | 445 kts | 181° |
| 2026-05-03 22:20 | 39.93661 | -8.52771 | 23033 ft | 445 kts | 181° |
| 2026-05-03 22:20 | 39.90563 | -8.52543 | 23034 ft | 445 kts | 182° |
| 2026-05-03 22:21 | 39.87474 | -8.52312 | 23041 ft | 446 kts | 181° |
| 2026-05-03 22:21 | 39.84383 | -8.52073 | 23047 ft | 446 kts | 181° |
| 2026-05-03 22:21 | 39.81277 | -8.51826 | 23050 ft | 446 kts | 182° |
| 2026-05-03 22:21 | 39.78197 | -8.51957 | 23052 ft | 440 kts | 191° |
| 2026-05-03 22:22 | 39.75247 | -8.52764 | 22329 ft | 428 kts | 202° |
| 2026-05-03 22:22 | 39.72589 | -8.54454 | 21117 ft | 425 kts | 216° |
| 2026-05-03 22:22 | 39.70146 | -8.56651 | 19928 ft | 428 kts | 217° |
| 2026-05-03 22:22 | 39.67708 | -8.58874 | 19068 ft | 426 kts | 217° |
| 2026-05-03 22:23 | 39.65307 | -8.61066 | 18613 ft | 414 kts | 217° |
| 2026-05-03 22:23 | 39.63005 | -8.63162 | 18504 ft | 396 kts | 217° |
| 2026-05-03 22:23 | 39.60796 | -8.65165 | 18373 ft | 379 kts | 217° |
| 2026-05-03 22:23 | 39.58670 | -8.67090 | 18116 ft | 381 kts | 217° |
| 2026-05-03 22:24 | 39.56441 | -8.69113 | 17961 ft | 401 kts | 217° |
| 2026-05-03 22:24 | 39.54111 | -8.71227 | 17800 ft | 413 kts | 217° |
| 2026-05-03 22:24 | 39.51741 | -8.73372 | 17635 ft | 416 kts | 217° |
| 2026-05-03 22:24 | 39.49366 | -8.75519 | 17423 ft | 416 kts | 217° |
| 2026-05-03 22:25 | 39.46990 | -8.77661 | 17185 ft | 416 kts | 217° |
| 2026-05-03 22:25 | 39.44615 | -8.79798 | 16993 ft | 415 kts | 217° |
| 2026-05-03 22:25 | 39.42247 | -8.81925 | 16782 ft | 414 kts | 217° |
| 2026-05-03 22:25 | 39.39874 | -8.84054 | 16586 ft | 414 kts | 217° |
| 2026-05-03 22:26 | 39.37518 | -8.86168 | 16363 ft | 413 kts | 217° |
| 2026-05-03 22:26 | 39.35157 | -8.88287 | 16166 ft | 412 kts | 217° |
| 2026-05-03 22:26 | 39.32802 | -8.90400 | 15963 ft | 412 kts | 217° |
| 2026-05-03 22:26 | 39.30453 | -8.92505 | 15762 ft | 411 kts | 217° |
| 2026-05-03 22:27 | 39.28104 | -8.94608 | 15585 ft | 411 kts | 217° |
| 2026-05-03 22:27 | 39.25765 | -8.96699 | 15415 ft | 410 kts | 217° |
| 2026-05-03 22:27 | 39.23423 | -8.98794 | 15243 ft | 410 kts | 217° |
| 2026-05-03 22:27 | 39.21077 | -9.00893 | 15045 ft | 409 kts | 217° |
| 2026-05-03 22:28 | 39.18736 | -9.02985 | 14878 ft | 408 kts | 217° |
| 2026-05-03 22:28 | 39.16405 | -9.05069 | 14673 ft | 408 kts | 217° |
| 2026-05-03 22:28 | 39.14079 | -9.07144 | 14473 ft | 407 kts | 217° |
| 2026-05-03 22:28 | 39.11752 | -9.09218 | 14250 ft | 406 kts | 217° |
| 2026-05-03 22:29 | 39.09427 | -9.11287 | 14022 ft | 404 kts | 217° |
| 2026-05-03 22:29 | 39.07165 | -9.13296 | 13810 ft | 388 kts | 217° |
| 2026-05-03 22:29 | 39.05008 | -9.15206 | 13563 ft | 373 kts | 217° |
| 2026-05-03 22:29 | 39.02908 | -9.17064 | 13325 ft | 361 kts | 217° |
| 2026-05-03 22:30 | 39.00850 | -9.18885 | 13094 ft | 357 kts | 217° |
| 2026-05-03 22:30 | 38.98804 | -9.20701 | 12847 ft | 357 kts | 217° |
| 2026-05-03 22:30 | 38.96762 | -9.22515 | 12607 ft | 357 kts | 217° |
| 2026-05-03 22:30 | 38.94719 | -9.24330 | 12380 ft | 358 kts | 217° |
| 2026-05-03 22:31 | 38.92669 | -9.26149 | 12149 ft | 359 kts | 217° |
| 2026-05-03 22:31 | 38.90610 | -9.27971 | 11916 ft | 360 kts | 217° |
| 2026-05-03 22:31 | 38.88546 | -9.29791 | 11645 ft | 360 kts | 217° |
| 2026-05-03 22:31 | 38.86480 | -9.31609 | 11307 ft | 361 kts | 217° |
| 2026-05-03 22:32 | 38.84405 | -9.33435 | 10965 ft | 362 kts | 217° |
| 2026-05-03 22:32 | 38.82320 | -9.35270 | 10619 ft | 364 kts | 216° |
| 2026-05-03 22:32 | 38.80060 | -9.36764 | 10280 ft | 369 kts | 200° |
| 2026-05-03 22:32 | 38.77517 | -9.37274 | 9897 ft | 375 kts | 181° |
| 2026-05-03 22:33 | 38.74953 | -9.36766 | 9491 ft | 366 kts | 169° |
| 2026-05-03 22:33 | 38.72555 | -9.36057 | 9094 ft | 342 kts | 169° |
| 2026-05-03 22:33 | 38.70309 | -9.35379 | 8702 ft | 322 kts | 169° |
| 2026-05-03 22:33 | 38.68180 | -9.34734 | 8319 ft | 308 kts | 170° |
| 2026-05-03 22:34 | 38.66113 | -9.34115 | 7921 ft | 304 kts | 170° |
| 2026-05-03 22:34 | 38.64056 | -9.33508 | 7473 ft | 302 kts | 170° |
| 2026-05-03 22:34 | 38.62715 | -9.33111 | 7174 ft | 294 kts | 170° |
| 2026-05-03 22:34 | 38.60741 | -9.32525 | 6738 ft | 291 kts | 170° |
| 2026-05-03 22:35 | 38.58803 | -9.31751 | 6237 ft | 296 kts | 153° |
| 2026-05-03 22:35 | 38.57335 | -9.29919 | 5723 ft | 301 kts | 119° |
| 2026-05-03 22:35 | 38.56902 | -9.26488 | 5050 ft | 300 kts | 76° |
| 2026-05-03 22:35 | 38.57769 | -9.24121 | 4537 ft | 295 kts | 46° |
| 2026-05-03 22:36 | 38.58829 | -9.23012 | 4130 ft | 290 kts | 24° |
| 2026-05-03 22:36 | 38.60700 | -9.22472 | 3721 ft | 269 kts | 359° |
| 2026-05-03 22:36 | 38.62498 | -9.22176 | 3381 ft | 253 kts | 19° |
| 2026-05-03 22:36 | 38.63988 | -9.21221 | 3073 ft | 228 kts | 23° |
| 2026-05-03 22:37 | 38.65345 | -9.20423 | 2791 ft | 206 kts | 19° |
| 2026-05-03 22:37 | 38.66594 | -9.19748 | 2527 ft | 185 kts | 19° |
| 2026-05-03 22:37 | 38.67720 | -9.19148 | 2271 ft | 168 kts | 18° |
| 2026-05-03 22:37 | 38.68750 | -9.18600 | 2060 ft | 152 kts | 19° |
| 2026-05-03 22:38 | 38.69689 | -9.18100 | 1849 ft | 142 kts | 18° |
| 2026-05-03 22:38 | 38.70592 | -9.17619 | 1657 ft | 140 kts | 18° |
| 2026-05-03 22:38 | 38.71483 | -9.17145 | 1465 ft | 138 kts | 19° |
| 2026-05-03 22:38 | 38.72370 | -9.16667 | 1277 ft | 137 kts | 19° |
| 2026-05-03 22:39 | 38.73242 | -9.16175 | 1045 ft | 137 kts | 18° |
| 2026-05-03 22:39 | 38.74129 | -9.15717 | 865 ft | 140 kts | 19° |
| 2026-05-03 22:39 | 38.75033 | -9.15240 | 675 ft | 141 kts | 20° |
| 2026-05-03 22:39 | 38.75950 | -9.14765 | 517 ft | 143 kts | 18° |
| 2026-05-03 22:40 | 38.76868 | -9.14275 | 365 ft | 142 kts | 18° |
| 2026-05-03 22:40 | 38.77755 | -9.13785 | 505 ft | 146 kts | 19° |
| 2026-05-03 22:40 | 38.78745 | -9.13237 | 1031 ft | 162 kts | 20° |
| 2026-05-03 22:40 | 38.79797 | -9.12656 | 1796 ft | 167 kts | 20° |
| 2026-05-03 22:41 | 38.80892 | -9.12044 | 2472 ft | 180 kts | 20° |
| 2026-05-03 22:41 | 38.82081 | -9.11361 | 2915 ft | 192 kts | 21° |
| 2026-05-03 22:41 | 38.83315 | -9.10545 | 3298 ft | 211 kts | 35° |
| 2026-05-03 22:41 | 38.84217 | -9.08917 | 3557 ft | 245 kts | 68° |
| 2026-05-03 22:42 | 38.84373 | -9.06606 | 3829 ft | 279 kts | 98° |
| 2026-05-03 22:42 | 38.83625 | -9.04170 | 3983 ft | 315 kts | 124° |
| 2026-05-03 22:42 | 38.82031 | -9.02132 | 4019 ft | 335 kts | 147° |
| 2026-05-03 22:42 | 38.79970 | -9.01041 | 4019 ft | 310 kts | 170° |
| 2026-05-03 22:43 | 38.77920 | -9.00614 | 4010 ft | 289 kts | 174° |
| 2026-05-03 22:43 | 38.75994 | -9.00270 | 4005 ft | 275 kts | 174° |
| 2026-05-03 22:43 | 38.74107 | -8.99981 | 4008 ft | 272 kts | 181° |
| 2026-05-03 22:43 | 38.72288 | -9.00342 | 4012 ft | 267 kts | 197° |
| 2026-05-03 22:44 | 38.70492 | -9.00993 | 4010 ft | 267 kts | 199° |
| 2026-05-03 22:44 | 38.68709 | -9.01673 | 4010 ft | 267 kts | 199° |
| 2026-05-03 22:44 | 38.66930 | -9.02352 | 4023 ft | 267 kts | 199° |
| 2026-05-03 22:44 | 38.65152 | -9.03033 | 4024 ft | 268 kts | 199° |
| 2026-05-03 22:45 | 38.63368 | -9.03717 | 4020 ft | 267 kts | 199° |
| 2026-05-03 22:45 | 38.61584 | -9.04401 | 3963 ft | 266 kts | 199° |
| 2026-05-03 22:45 | 38.59805 | -9.05075 | 3853 ft | 267 kts | 199° |
| 2026-05-03 22:45 | 38.58153 | -9.06071 | 3708 ft | 262 kts | 223° |
| 2026-05-03 22:46 | 38.57104 | -9.07859 | 3590 ft | 245 kts | 252° |
| 2026-05-03 22:46 | 38.56898 | -9.09922 | 3463 ft | 227 kts | 276° |
| 2026-05-03 22:46 | 38.57037 | -9.11896 | 3332 ft | 221 kts | 279° |
| 2026-05-03 22:46 | 38.57209 | -9.13844 | 3192 ft | 220 kts | 279° |
| 2026-05-03 22:47 | 38.57384 | -9.15774 | 3082 ft | 218 kts | 279° |
| 2026-05-03 22:47 | 38.57563 | -9.17706 | 3014 ft | 218 kts | 279° |
| 2026-05-03 22:47 | 38.57978 | -9.19544 | 3027 ft | 215 kts | 303° |
| 2026-05-03 22:47 | 38.58935 | -9.20945 | 3010 ft | 208 kts | 322° |
| 2026-05-03 22:48 | 38.60186 | -9.21809 | 3025 ft | 202 kts | 341° |
| 2026-05-03 22:48 | 38.61517 | -9.22067 | 3023 ft | 188 kts | 360° |
| 2026-05-03 22:48 | 38.62781 | -9.21776 | 3030 ft | 185 kts | 17° |
| 2026-05-03 22:48 | 38.63959 | -9.21153 | 2985 ft | 182 kts | 19° |
| 2026-05-03 22:49 | 38.65112 | -9.20539 | 2828 ft | 175 kts | 19° |
| 2026-05-03 22:49 | 38.66217 | -9.19951 | 2585 ft | 171 kts | 19° |
| 2026-05-03 22:49 | 38.67298 | -9.19376 | 2365 ft | 162 kts | 19° |
| 2026-05-03 22:49 | 38.68297 | -9.18843 | 2152 ft | 151 kts | 19° |
| 2026-05-03 22:50 | 38.69254 | -9.18333 | 1944 ft | 148 kts | 19° |
| 2026-05-03 22:50 | 38.70202 | -9.17829 | 1741 ft | 147 kts | 18° |
| 2026-05-03 22:50 | 38.71143 | -9.17327 | 1537 ft | 146 kts | 19° |
| 2026-05-03 22:50 | 38.72072 | -9.16825 | 1316 ft | 141 kts | 20° |
| 2026-05-03 22:51 | 38.72960 | -9.16326 | 1140 ft | 139 kts | 19° |
| 2026-05-03 22:51 | 38.73865 | -9.15877 | 950 ft | 141 kts | 18° |
| 2026-05-03 22:51 | 38.74771 | -9.15402 | 741 ft | 142 kts | 20° |
| 2026-05-03 22:51 | 38.75673 | -9.14894 | 588 ft | 143 kts | 16° |
| 2026-05-03 22:52 | 38.76601 | -9.14411 | 404 ft | 143 kts | 18° |
| 2026-05-03 22:52 | 38.77497 | -9.13937 | 367 ft | 125 kts | 23° |
| 2026-05-03 22:52 | 38.78153 | -9.13583 | 370 ft | 80 kts | 23° |
| 2026-05-03 22:52 | 38.78480 | -9.13407 | 362 ft | 24 kts | 23° |
| 2026-05-03 22:53 | 38.78538 | -9.13287 | 360 ft | 12 kts | 110° |
| 2026-05-03 22:53 | 38.78484 | -9.13230 | 361 ft | 10 kts | 164° |
| 2026-05-03 22:53 | 38.78419 | -9.13218 | 362 ft | 10 kts | 180° |
| 2026-05-03 22:53 | 38.78346 | -9.13250 | 361 ft | 15 kts | 202° |
| 2026-05-03 22:54 | 38.78249 | -9.13301 | 360 ft | 15 kts | 202° |
| 2026-05-03 22:54 | 38.78149 | -9.13353 | 361 ft | 16 kts | 201° |
| 2026-05-03 22:54 | 38.78045 | -9.13408 | 361 ft | 17 kts | 198° |
| 2026-05-03 22:54 | 38.77921 | -9.13389 | 355 ft | 20 kts | 168° |
| 2026-05-03 22:55 | 38.77777 | -9.13349 | 347 ft | 22 kts | 168° |
| 2026-05-03 22:55 | 38.77644 | -9.13320 | 338 ft | 14 kts | 176° |
| 2026-05-03 22:55 | 38.77552 | -9.13312 | 337 ft | 12 kts | 168° |
| 2026-05-03 22:55 | 38.77472 | -9.13290 | 336 ft | 11 kts | 168° |
| 2026-05-03 22:56 | 38.77402 | -9.13272 | 337 ft | 9 kts | 168° |
| 2026-05-03 22:56 | 38.77343 | -9.13260 | 336 ft | 8 kts | 172° |
| 2026-05-03 22:56 | 38.77292 | -9.13250 | 338 ft | 7 kts | 170° |
| 2026-05-03 22:56 | 38.77250 | -9.13234 | 338 ft | 6 kts | 143° |
| 2026-05-03 22:57 | 38.77248 | -9.13187 | 335 ft | 6 kts | 78° |
| 2026-05-03 22:57 | 38.77252 | -9.13162 | 335 ft | 1 kts | 78° |
| 2026-05-03 22:57 | 38.77254 | -9.13155 | 335 ft | 0 kts | 77° |
| 2026-05-03 22:57 | 38.77254 | -9.13153 | 335 ft | 0 kts | 77° |